Time;durP1;ratioP1;P1;durP2;ratioP2;P2;SDS_P1;SDS_P2;PMS_P1;PMS_P2;Temp;Humidity;BMP_temperature;BMP_pressure;BME280_temperature;BME280_humidity;BME280_pressure;Samples;Min_cycle;Max_cycle;Signal;HPM_P1;HPM_P2
2023/06/14 00:01:59;;;;;;;;;12.50;11.00;25.00;52.80;;;;;;111313;1243;53499;-66
2023/06/14 00:04:26;;;;;;;;;11.75;11.50;25.00;52.70;;;;;;111763;1238;44495;-67
2023/06/14 00:06:53;;;;;;;;;11.00;11.00;25.00;52.80;;;;;;111400;1243;49895;-65
2023/06/14 00:09:20;;;;;;;;;12.00;11.00;25.00;52.80;;;;;;111376;1240;49734;-66
2023/06/14 00:11:47;;;;;;;;;12.75;11.00;25.00;52.70;;;;;;111391;1243;54703;-67
2023/06/14 00:14:14;;;;;;;;;10.75;10.25;25.00;52.80;;;;;;111669;1243;44687;-66
2023/06/14 00:16:42;;;;;;;;;11.75;11.00;25.00;52.80;;;;;;111510;1242;49842;-67
2023/06/14 00:19:10;;;;;;;;;12.67;11.67;25.00;52.80;;;;;;111482;1238;49053;-67
2023/06/14 00:21:37;;;;;;;;;10.25;10.00;25.00;53.00;;;;;;111495;1243;53468;-67
2023/06/14 00:24:05;;;;;;;;;12.25;11.50;25.00;52.80;;;;;;111414;1239;45039;-66
2023/06/14 00:26:32;;;;;;;;;12.00;10.25;25.00;52.70;;;;;;111263;1240;49222;-66
2023/06/14 00:28:59;;;;;;;;;11.00;10.50;25.00;52.80;;;;;;111345;1240;49312;-66
2023/06/14 00:31:26;;;;;;;;;11.00;10.75;25.00;52.80;;;;;;111350;1243;54313;-66
2023/06/14 00:33:53;;;;;;;;;11.00;10.00;25.00;52.80;;;;;;111210;1239;45299;-66
2023/06/14 00:36:20;;;;;;;;;10.33;8.67;24.90;52.80;;;;;;111647;1243;50320;-67
2023/06/14 00:38:47;;;;;;;;;10.75;10.00;24.90;53.00;;;;;;111349;1240;49813;-65
2023/06/14 00:41:14;;;;;;;;;11.67;10.67;24.90;52.80;;;;;;111228;1243;53756;-67
2023/06/14 00:43:41;;;;;;;;;11.25;10.00;24.90;52.80;;;;;;111375;1243;44551;-67
2023/06/14 00:46:08;;;;;;;;;12.00;9.50;24.90;53.00;;;;;;111505;1241;49448;-67
2023/06/14 00:48:36;;;;;;;;;10.00;9.00;24.90;52.90;;;;;;111456;1240;50227;-66
2023/06/14 00:51:03;;;;;;;;;12.00;11.25;24.90;52.90;;;;;;111113;1242;54108;-65
2023/06/14 00:53:33;;;;;;;;;10.00;9.00;24.90;52.90;;;;;;111454;1242;45431;-68
2023/06/14 00:56:01;;;;;;;;;9.75;9.00;24.90;52.90;;;;;;111627;1240;50164;-66
2023/06/14 00:58:28;;;;;;;;;13.00;12.00;24.90;52.90;;;;;;111445;1242;49867;-67
2023/06/14 01:00:56;;;;;;;;;12.00;10.00;24.90;52.90;;;;;;111455;1239;54294;-67
2023/06/14 01:03:23;;;;;;;;;10.00;9.75;24.90;53.00;;;;;;111411;1243;44900;-67
2023/06/14 01:06:02;;;;;;;;;13.25;11.75;24.90;52.80;;;;;;111703;1240;50015;-66
2023/06/14 01:08:51;;;;;;;;;9.00;9.00;24.90;52.80;;;;;;111370;1238;49473;-67
2023/06/14 01:11:28;;;;;;;;;12.00;10.25;24.90;52.80;;;;;;111497;1238;53700;-66
2023/06/14 01:13:56;;;;;;;;;10.00;9.50;24.90;52.90;;;;;;111618;1242;44606;-66
2023/06/14 01:16:23;;;;;;;;;11.00;10.00;24.90;52.90;;;;;;111679;1239;49288;-67
2023/06/14 01:18:52;;;;;;;;;11.00;10.00;24.90;52.70;;;;;;111439;1244;49390;-69
2023/06/14 01:21:23;;;;;;;;;10.50;9.25;24.90;52.60;;;;;;111386;1243;53732;-67
2023/06/14 01:23:54;;;;;;;;;10.50;8.75;24.90;52.70;;;;;;111476;1238;44791;-70
2023/06/14 01:26:22;;;;;;;;;11.00;10.50;24.90;52.70;;;;;;111411;1243;49239;-67
2023/06/14 01:28:50;;;;;;;;;13.50;12.00;24.90;52.70;;;;;;111626;1239;49172;-66
2023/06/14 01:31:21;;;;;;;;;11.67;11.00;24.90;52.80;;;;;;111458;1243;54369;-66
2023/06/14 01:33:51;;;;;;;;;11.25;10.75;24.90;52.70;;;;;;111569;1238;44085;-65
2023/06/14 01:36:22;;;;;;;;;9.75;9.00;24.90;52.70;;;;;;111322;1238;49877;-67
2023/06/14 01:38:50;;;;;;;;;13.25;11.00;24.90;52.70;;;;;;111382;1240;50437;-67
2023/06/14 01:41:18;;;;;;;;;10.00;9.00;24.90;53.20;;;;;;111274;1244;53211;-66
2023/06/14 01:43:46;;;;;;;;;9.50;9.00;24.90;52.90;;;;;;111392;1240;44004;-66
2023/06/14 01:46:15;;;;;;;;;12.75;12.00;24.90;52.80;;;;;;111490;1243;48486;-68
2023/06/14 01:48:43;;;;;;;;;11.25;10.75;24.90;52.80;;;;;;111376;1243;48632;-67
2023/06/14 01:51:10;;;;;;;;;12.50;10.00;24.90;52.70;;;;;;111301;1243;54268;-66
2023/06/14 01:53:37;;;;;;;;;10.75;9.75;24.80;52.70;;;;;;111341;1241;44705;-65
2023/06/14 01:56:04;;;;;;;;;8.00;7.00;24.80;52.90;;;;;;111707;1243;49511;-66
2023/06/14 01:58:31;;;;;;;;;10.75;9.50;24.80;52.70;;;;;;111385;1238;49487;-65
2023/06/14 02:01:00;;;;;;;;;10.00;9.00;24.80;52.70;;;;;;111420;1237;54725;-67
2023/06/14 02:03:27;;;;;;;;;10.75;9.75;24.80;52.70;;;;;;111261;1243;44773;-65
2023/06/14 02:05:55;;;;;;;;;10.00;9.00;24.80;52.70;;;;;;111379;1243;49568;-66
2023/06/14 02:08:23;;;;;;;;;9.00;8.00;24.80;52.90;;;;;;111520;1243;49209;-68
2023/06/14 02:10:50;;;;;;;;;9.00;8.00;24.80;52.70;;;;;;111491;1242;54209;-66
2023/06/14 02:13:17;;;;;;;;;9.75;9.00;24.80;52.70;;;;;;111507;1238;45553;-66
2023/06/14 02:15:45;;;;;;;;;10.50;9.75;24.80;52.80;;;;;;111624;1242;49457;-66
2023/06/14 02:18:12;;;;;;;;;9.75;9.00;24.80;52.80;;;;;;111340;1243;49887;-66
2023/06/14 02:20:40;;;;;;;;;10.00;8.00;24.80;52.70;;;;;;111229;1240;54942;-66
2023/06/14 02:23:07;;;;;;;;;10.00;9.50;24.80;52.70;;;;;;111342;1237;45544;-67
2023/06/14 02:25:34;;;;;;;;;11.25;10.00;24.80;52.70;;;;;;111909;1237;50879;-66
2023/06/14 02:28:02;;;;;;;;;11.00;9.25;24.80;52.80;;;;;;111454;1237;49327;-66
2023/06/14 02:30:29;;;;;;;;;11.00;10.25;24.70;52.20;;;;;;111514;1238;54035;-66
2023/06/14 02:32:56;;;;;;;;;10.75;8.75;24.70;52.80;;;;;;111407;1238;44664;-66
2023/06/14 02:35:26;;;;;;;;;11.75;11.00;24.70;52.70;;;;;;111691;1240;50405;-67
2023/06/14 02:37:53;;;;;;;;;10.00;9.00;24.70;52.70;;;;;;111397;1243;48945;-65
2023/06/14 02:40:20;;;;;;;;;11.00;10.00;24.70;52.80;;;;;;111212;1239;54378;-66
2023/06/14 02:42:47;;;;;;;;;10.50;9.25;24.70;52.60;;;;;;111220;1238;44125;-66
2023/06/14 02:45:14;;;;;;;;;10.75;10.00;24.70;52.60;;;;;;111291;1242;49931;-66
2023/06/14 02:47:41;;;;;;;;;9.75;9.00;24.70;52.60;;;;;;111458;1243;49508;-66
2023/06/14 02:50:09;;;;;;;;;10.33;9.00;24.70;52.70;;;;;;111427;1237;53962;-66
2023/06/14 02:52:36;;;;;;;;;10.00;8.50;24.70;52.70;;;;;;111525;1242;44667;-66
2023/06/14 02:55:04;;;;;;;;;9.25;9.00;24.70;52.90;;;;;;111756;1242;49516;-67
2023/06/14 02:57:31;;;;;;;;;9.00;8.00;24.70;52.70;;;;;;111546;1243;49723;-67
2023/06/14 02:59:58;;;;;;;;;10.75;9.75;24.60;52.60;;;;;;111544;1243;53557;-67
2023/06/14 03:02:25;;;;;;;;;9.00;8.00;24.70;52.80;;;;;;111460;1240;44691;-68
2023/06/14 03:04:52;;;;;;;;;10.75;10.50;24.70;52.60;;;;;;111909;1243;49103;-68
2023/06/14 03:07:20;;;;;;;;;9.50;9.00;24.70;52.70;;;;;;111576;1244;49364;-66
2023/06/14 03:09:48;;;;;;;;;9.00;7.00;24.70;52.60;;;;;;111455;1238;53235;-67
2023/06/14 03:12:15;;;;;;;;;9.75;8.75;24.70;52.60;;;;;;111366;1243;44577;-68
2023/06/14 03:14:43;;;;;;;;;8.00;7.00;24.70;52.70;;;;;;111663;1242;49093;-69
2023/06/14 03:17:10;;;;;;;;;9.00;8.75;24.60;52.60;;;;;;111403;1239;48929;-68
2023/06/14 03:19:37;;;;;;;;;9.75;9.50;24.70;52.60;;;;;;111445;1237;54155;-67
2023/06/14 03:22:04;;;;;;;;;12.00;10.25;24.70;52.60;;;;;;111411;1243;44851;-68
2023/06/14 03:24:36;;;;;;;;;11.00;10.00;24.70;52.60;;;;;;111889;1243;49564;-67
2023/06/14 03:27:03;;;;;;;;;10.50;9.50;24.70;52.60;;;;;;111615;1243;49650;-67
2023/06/14 03:29:33;;;;;;;;;11.00;9.50;24.70;52.60;;;;;;111634;1238;53251;-68
2023/06/14 03:32:01;;;;;;;;;11.00;10.00;24.70;52.70;;;;;;111472;1238;44556;-69
2023/06/14 03:34:28;;;;;;;;;8.50;7.75;24.70;52.60;;;;;;111850;1242;48826;-68
2023/06/14 03:36:55;;;;;;;;;10.00;8.33;24.60;52.50;;;;;;111440;1243;50680;-67
2023/06/14 03:39:22;;;;;;;;;11.00;9.00;24.60;52.50;;;;;;111625;1243;54055;-67
2023/06/14 03:41:49;;;;;;;;;7.00;6.00;24.60;52.50;;;;;;111452;1243;44406;-67
2023/06/14 03:44:18;;;;;;;;;9.00;8.00;24.60;52.50;;;;;;111776;1243;48644;-67
2023/06/14 03:46:46;;;;;;;;;11.50;9.75;24.60;52.50;;;;;;111661;1243;48772;-67
2023/06/14 03:49:13;;;;;;;;;10.75;9.25;24.70;52.60;;;;;;111579;1243;53359;-68
2023/06/14 03:51:40;;;;;;;;;11.00;10.00;24.70;52.60;;;;;;111520;1242;44857;-68
2023/06/14 03:54:07;;;;;;;;;10.25;9.75;24.70;53.00;;;;;;111573;1243;49558;-67
2023/06/14 03:56:35;;;;;;;;;10.25;9.00;24.70;52.50;;;;;;111715;1238;49713;-68
2023/06/14 03:59:02;;;;;;;;;11.00;10.50;24.70;53.00;;;;;;111376;1243;53409;-67
2023/06/14 04:01:29;;;;;;;;;9.00;8.67;24.70;52.50;;;;;;111368;1243;44707;-67
2023/06/14 04:03:57;;;;;;;;;10.33;9.33;24.70;52.50;;;;;;111341;1238;48751;-68
2023/06/14 04:06:32;;;;;;;;;10.33;9.67;24.60;52.50;;;;;;111880;1243;49442;-68
2023/06/14 04:09:02;;;;;;;;;9.75;8.75;24.60;52.50;;;;;;111509;1237;54188;-70
2023/06/14 04:11:31;;;;;;;;;10.00;10.00;24.60;52.50;;;;;;111432;1243;45730;-70
2023/06/14 04:13:58;;;;;;;;;9.50;9.00;24.60;52.50;;;;;;111620;1242;49791;-71
2023/06/14 04:16:26;;;;;;;;;11.00;11.00;24.60;52.50;;;;;;111840;1242;49231;-70
2023/06/14 04:18:55;;;;;;;;;10.00;9.00;24.60;52.70;;;;;;111751;1239;54212;-75
2023/06/14 04:21:23;;;;;;;;;17.75;15.75;24.60;52.90;;;;;;111552;1243;45617;-72
2023/06/14 04:23:52;;;;;;;;;19.50;16.00;24.60;53.20;;;;;;111538;1238;48824;-70
2023/06/14 04:26:20;;;;;;;;;15.50;14.00;24.60;53.30;;;;;;111837;1244;49253;-75
2023/06/14 04:28:47;;;;;;;;;19.00;14.67;24.60;53.50;;;;;;111859;1241;53551;-73
2023/06/14 04:31:15;;;;;;;;;15.25;14.00;24.60;54.00;;;;;;111583;1243;44792;-72
2023/06/14 04:33:46;;;;;;;;;19.50;17.25;24.70;54.30;;;;;;111533;1243;48689;-71
2023/06/14 04:36:13;;;;;;;;;16.75;15.00;24.70;54.00;;;;;;111851;1240;49652;-73
2023/06/14 04:38:41;;;;;;;;;20.67;18.67;24.70;54.40;;;;;;111432;1240;53660;-72
2023/06/14 04:41:11;;;;;;;;;28.25;22.00;24.70;54.40;;;;;;111595;1243;44799;-76
2023/06/14 04:43:38;;;;;;;;;21.00;19.00;24.70;54.40;;;;;;111608;1239;50394;-75
2023/06/14 04:46:10;;;;;;;;;15.75;15.00;24.70;50.60;;;;;;111862;1237;49171;-73
2023/06/14 04:48:40;;;;;;;;;14.00;13.00;24.70;49.20;;;;;;111180;1243;53960;-68
2023/06/14 04:51:08;;;;;;;;;14.00;12.75;24.60;48.50;;;;;;111326;1239;44734;-68
2023/06/14 04:53:35;;;;;;;;;15.50;13.00;24.60;48.40;;;;;;111507;1243;49696;-69
2023/06/14 04:56:03;;;;;;;;;13.00;12.00;24.50;48.10;;;;;;111900;1237;48861;-71
2023/06/14 04:58:31;;;;;;;;;12.00;11.00;24.40;48.10;;;;;;111495;1237;53825;-70
2023/06/14 05:00:59;;;;;;;;;14.75;12.75;24.40;48.30;;;;;;111614;1239;44686;-69
2023/06/14 05:03:27;;;;;;;;;14.00;13.00;24.30;48.60;;;;;;111455;1244;49954;-74
2023/06/14 05:05:54;;;;;;;;;15.00;12.00;24.20;48.40;;;;;;111644;1243;49695;-72
2023/06/14 05:08:24;;;;;;;;;12.00;11.00;24.10;48.70;;;;;;111647;1242;54096;-76
2023/06/14 05:10:51;;;;;;;;;14.00;13.25;24.00;48.70;;;;;;111625;1238;45157;-72
2023/06/14 05:13:18;;;;;;;;;13.50;11.50;24.00;48.90;;;;;;111605;1238;49166;-74
2023/06/14 05:15:45;;;;;;;;;14.25;12.75;23.90;49.30;;;;;;111927;1242;49709;-72
2023/06/14 05:18:13;;;;;;;;;15.00;13.67;23.80;49.00;;;;;;111566;1243;53658;-77
2023/06/14 05:20:41;;;;;;;;;15.50;14.50;23.80;49.30;;;;;;111597;1243;45099;-76
2023/06/14 05:23:14;;;;;;;;;14.25;13.75;23.80;49.40;;;;;;111677;1242;49952;-75
2023/06/14 05:25:45;;;;;;;;;15.50;14.75;23.70;49.60;;;;;;111835;1238;49241;-74
2023/06/14 05:28:12;;;;;;;;;18.67;15.00;23.60;49.80;;;;;;111359;1241;53793;-75
2023/06/14 05:30:39;;;;;;;;;15.00;12.67;23.60;50.00;;;;;;111549;1243;44913;-72
2023/06/14 05:33:06;;;;;;;;;16.50;14.50;23.60;50.10;;;;;;111456;1239;49084;-75
2023/06/14 05:35:34;;;;;;;;;15.00;14.00;23.60;50.50;;;;;;111795;1240;49490;-73
2023/06/14 05:38:01;;;;;;;;;18.75;16.75;23.50;50.40;;;;;;111426;1243;53532;-72
2023/06/14 05:40:28;;;;;;;;;16.75;15.00;23.50;50.60;;;;;;111487;1238;44266;-72
2023/06/14 05:42:55;;;;;;;;;18.00;17.00;23.50;50.90;;;;;;111434;1243;49218;-73
2023/06/14 05:45:22;;;;;;;;;17.25;14.00;23.50;51.00;;;;;;111904;1238;49877;-72
2023/06/14 05:47:50;;;;;;;;;17.00;16.25;23.50;50.90;;;;;;111351;1243;54176;-73
2023/06/14 05:50:17;;;;;;;;;19.50;16.25;23.50;51.30;;;;;;111404;1242;45521;-70
2023/06/14 05:52:44;;;;;;;;;13.50;12.75;23.60;51.40;;;;;;111628;1242;48892;-72
2023/06/14 05:55:11;;;;;;;;;17.00;15.50;23.60;51.30;;;;;;111943;1238;49918;-70
2023/06/14 05:57:38;;;;;;;;;15.67;14.67;23.60;51.60;;;;;;111308;1243;54830;-70
2023/06/14 06:00:11;;;;;;;;;14.25;13.75;23.60;51.20;;;;;;111517;1242;45179;-69
2023/06/14 06:02:38;;;;;;;;;15.00;14.00;23.70;51.10;;;;;;112356;1242;49509;-70
2023/06/14 06:05:05;;;;;;;;;16.75;16.25;23.70;50.90;;;;;;111276;1243;49069;-69
2023/06/14 06:07:33;;;;;;;;;16.00;15.00;23.70;51.10;;;;;;111942;1243;53525;-70
2023/06/14 06:10:00;;;;;;;;;15.00;13.75;23.80;51.30;;;;;;111252;1243;44982;-71
2023/06/14 06:12:27;;;;;;;;;16.00;15.00;23.80;51.00;;;;;;111356;1243;49505;-69
2023/06/14 06:14:55;;;;;;;;;16.00;14.25;23.80;51.30;;;;;;111289;1239;49785;-68
2023/06/14 06:17:22;;;;;;;;;17.00;15.00;23.80;50.90;;;;;;111394;1242;53988;-69
2023/06/14 06:19:49;;;;;;;;;14.00;12.25;23.80;51.10;;;;;;111382;1243;44173;-68
2023/06/14 06:22:16;;;;;;;;;15.00;14.00;23.80;51.00;;;;;;111238;1238;49318;-69
2023/06/14 06:24:43;;;;;;;;;18.00;16.25;23.80;51.70;;;;;;111258;1238;50577;-69
2023/06/14 06:27:12;;;;;;;;;15.50;12.50;23.80;51.10;;;;;;111473;1243;53219;-71
2023/06/14 06:29:41;;;;;;;;;19.25;17.00;23.80;50.90;;;;;;111519;1242;44244;-69
2023/06/14 06:32:08;;;;;;;;;16.00;14.00;23.80;51.60;;;;;;111346;1242;48782;-69
2023/06/14 06:34:35;;;;;;;;;17.33;15.00;23.80;51.60;;;;;;111399;1245;49903;-69
2023/06/14 06:37:02;;;;;;;;;15.75;15.00;23.80;51.70;;;;;;111317;1240;53743;-70
2023/06/14 06:39:29;;;;;;;;;17.67;16.00;23.80;51.60;;;;;;111433;1237;44856;-70
2023/06/14 06:41:56;;;;;;;;;13.75;12.50;23.90;51.00;;;;;;111393;1237;49774;-68
2023/06/14 06:44:23;;;;;;;;;15.50;13.75;23.90;50.60;;;;;;111394;1243;49191;-69
2023/06/14 06:46:50;;;;;;;;;18.00;15.67;23.80;50.40;;;;;;111387;1238;53731;-69
2023/06/14 06:49:17;;;;;;;;;17.25;16.50;23.80;50.40;;;;;;111423;1243;45128;-68
2023/06/14 06:51:59;;;;;;;;;15.75;15.25;23.80;50.60;;;;;;111412;1242;48981;-69
2023/06/14 06:54:26;;;;;;;;;16.67;13.00;23.80;51.30;;;;;;111292;1243;50259;-69
2023/06/14 06:56:53;;;;;;;;;15.75;14.50;23.80;51.60;;;;;;111200;1241;53311;-69
2023/06/14 06:59:20;;;;;;;;;16.00;14.00;23.80;51.60;;;;;;111515;1243;44329;-69
2023/06/14 07:01:47;;;;;;;;;15.00;13.00;23.80;51.50;;;;;;111272;1238;49047;-69
2023/06/14 07:04:15;;;;;;;;;16.75;14.75;23.80;51.00;;;;;;111426;1244;49000;-70
2023/06/14 07:06:44;;;;;;;;;17.33;16.33;23.80;51.20;;;;;;111325;1243;54085;-70
2023/06/14 07:09:13;;;;;;;;;18.25;16.00;23.90;52.40;;;;;;111400;1238;44166;-68
2023/06/14 07:11:41;;;;;;;;;19.75;18.75;23.90;52.00;;;;;;111279;1243;49501;-69
2023/06/14 07:14:08;;;;;;;;;17.67;16.67;24.00;52.10;;;;;;111290;1243;49126;-69
2023/06/14 07:16:35;;;;;;;;;20.00;17.75;24.00;52.30;;;;;;111226;1237;54247;-70
2023/06/14 07:19:03;;;;;;;;;17.00;15.75;24.00;52.20;;;;;;111538;1238;45503;-71
2023/06/14 07:21:30;;;;;;;;;18.00;16.25;24.10;52.10;;;;;;111417;1243;49736;-70
2023/06/14 07:23:57;;;;;;;;;15.33;15.00;24.20;51.60;;;;;;111263;1238;49626;-69
2023/06/14 07:26:26;;;;;;;;;17.75;16.75;24.20;51.50;;;;;;111590;1243;54789;-69
2023/06/14 07:28:53;;;;;;;;;17.75;16.00;24.10;51.10;;;;;;111325;1238;45691;-70
2023/06/14 07:31:20;;;;;;;;;16.75;16.25;24.20;51.20;;;;;;111359;1240;50017;-75
2023/06/14 07:33:47;;;;;;;;;19.67;17.67;24.20;51.90;;;;;;111846;1242;49158;-70
2023/06/14 07:36:14;;;;;;;;;17.25;16.00;24.20;52.40;;;;;;112099;1239;54510;-72
2023/06/14 07:38:40;;;;;;;;;16.25;15.25;24.20;52.10;;;;;;110871;1240;1260394;-73
2023/06/14 07:41:08;;;;;;;;;18.00;16.00;24.30;52.70;;;;;;111359;1243;49088;-76
2023/06/14 07:43:34;;;;;;;;;20.00;18.67;24.40;52.30;;;;;;111612;1243;49852;-74
2023/06/14 07:46:02;;;;;;;;;20.00;19.00;24.50;52.50;;;;;;111864;1241;53666;-75
2023/06/14 07:48:29;;;;;;;;;16.67;16.67;24.50;52.30;;;;;;111637;1238;45690;-75
2023/06/14 07:50:56;;;;;;;;;17.33;16.67;24.50;52.00;;;;;;111760;1243;49269;-75
2023/06/14 07:53:23;;;;;;;;;19.00;15.25;24.60;50.90;;;;;;111583;1243;49765;-73
2023/06/14 07:55:50;;;;;;;;;18.00;17.50;24.60;51.90;;;;;;111926;1237;53684;-73
2023/06/14 07:58:17;;;;;;;;;24.00;22.00;24.70;52.40;;;;;;111379;1240;45132;-72
2023/06/14 08:00:46;;;;;;;;;26.25;23.00;24.80;53.00;;;;;;111586;1238;50029;-71
2023/06/14 08:03:13;;;;;;;;;33.00;28.33;24.80;52.70;;;;;;111497;1237;50447;-72
2023/06/14 08:05:40;;;;;;;;;36.75;30.00;24.90;53.00;;;;;;111921;1238;53340;-73
2023/06/14 08:08:07;;;;;;;;;26.50;25.00;24.90;53.50;;;;;;111417;1238;44413;-72
2023/06/14 08:10:34;;;;;;;;;23.75;19.75;24.90;52.80;;;;;;111435;1238;49464;-72
2023/06/14 08:13:00;;;;;;;;;22.00;19.00;25.00;52.70;;;;;;111568;1244;49922;-73
2023/06/14 08:15:27;;;;;;;;;19.50;18.25;25.00;52.70;;;;;;111870;1241;53590;-73
2023/06/14 08:17:54;;;;;;;;;19.25;18.25;25.00;52.00;;;;;;111568;1238;44307;-71
2023/06/14 08:20:21;;;;;;;;;17.00;15.00;25.00;50.90;;;;;;111600;1243;49710;-73
2023/06/14 08:22:48;;;;;;;;;18.75;17.75;25.10;51.00;;;;;;111515;1243;50661;-72
2023/06/14 08:25:15;;;;;;;;;18.75;17.00;25.10;51.90;;;;;;111780;1240;53778;-74
2023/06/14 08:27:42;;;;;;;;;20.00;18.00;25.20;52.10;;;;;;111386;1240;44292;-72
2023/06/14 08:30:10;;;;;;;;;18.25;16.75;25.20;52.10;;;;;;111400;1243;49622;-71
2023/06/14 08:32:37;;;;;;;;;23.50;18.00;25.20;52.10;;;;;;111390;1243;48959;-72
2023/06/14 08:35:05;;;;;;;;;19.00;17.75;25.20;52.20;;;;;;111887;1237;53681;-70
2023/06/14 08:37:35;;;;;;;;;18.25;16.50;25.20;52.10;;;;;;111543;1237;44970;-71
2023/06/14 08:40:05;;;;;;;;;19.00;17.50;25.20;52.20;;;;;;111447;1240;49930;-72
2023/06/14 08:42:33;;;;;;;;;19.25;17.25;25.30;52.20;;;;;;111617;1243;50370;-71
2023/06/14 08:44:59;;;;;;;;;19.00;17.00;25.30;52.20;;;;;;111651;1241;53876;-71
2023/06/14 08:47:29;;;;;;;;;18.00;16.50;25.30;52.20;;;;;;111349;1243;44297;-73
2023/06/14 08:49:57;;;;;;;;;17.75;15.75;25.30;52.30;;;;;;111350;1242;48825;-72
2023/06/14 08:52:30;;;;;;;;;21.00;19.33;25.40;52.30;;;;;;111281;1240;49117;-72
2023/06/14 08:54:57;;;;;;;;;17.00;16.00;25.40;52.60;;;;;;111736;1243;54015;-72
2023/06/14 08:57:25;;;;;;;;;19.00;18.00;25.40;51.60;;;;;;111375;1242;45069;-72
2023/06/14 08:59:53;;;;;;;;;17.00;17.00;25.40;50.80;;;;;;111492;1242;49352;-72
2023/06/14 09:02:22;;;;;;;;;19.50;18.25;25.40;50.20;;;;;;111327;1240;49068;-72
2023/06/14 09:04:51;;;;;;;;;17.50;15.75;25.40;50.30;;;;;;111771;1238;54016;-73
2023/06/14 09:07:18;;;;;;;;;16.00;15.00;25.40;50.10;;;;;;111502;1237;44437;-72
2023/06/14 09:09:45;;;;;;;;;18.00;17.00;25.40;50.80;;;;;;111553;1237;49904;-71
2023/06/14 09:12:13;;;;;;;;;19.00;17.00;25.40;51.40;;;;;;111567;1238;49771;-71
2023/06/14 09:14:42;;;;;;;;;20.00;17.00;25.40;51.50;;;;;;111618;1238;54186;-72
2023/06/14 09:17:13;;;;;;;;;17.00;16.33;25.40;51.70;;;;;;111584;1243;44681;-72
2023/06/14 09:19:40;;;;;;;;;17.75;15.75;25.40;51.20;;;;;;111455;1238;50452;-72
2023/06/14 09:22:11;;;;;;;;;17.00;16.00;25.50;51.40;;;;;;111575;1237;49360;-72
2023/06/14 09:24:38;;;;;;;;;18.00;16.67;25.50;51.60;;;;;;111708;1238;53235;-72
2023/06/14 09:27:06;;;;;;;;;18.00;16.00;25.50;51.70;;;;;;111579;1238;44815;-72
2023/06/14 09:29:33;;;;;;;;;17.75;16.75;25.50;51.90;;;;;;111440;1242;49485;-72
2023/06/14 09:32:00;;;;;;;;;17.00;16.00;25.50;51.70;;;;;;111442;1242;49045;-72
2023/06/14 09:34:27;;;;;;;;;15.50;14.25;25.50;51.40;;;;;;111704;1237;54406;-72
2023/06/14 09:36:54;;;;;;;;;15.50;14.50;25.50;50.50;;;;;;111448;1238;45049;-72
2023/06/14 09:39:21;;;;;;;;;16.00;14.25;25.50;50.60;;;;;;111326;1240;49221;-73
2023/06/14 09:41:48;;;;;;;;;17.00;16.00;25.50;50.70;;;;;;111425;1242;49899;-71
2023/06/14 09:44:15;;;;;;;;;20.50;19.50;25.50;50.90;;;;;;111690;1237;54473;-72
2023/06/14 09:46:43;;;;;;;;;17.00;15.00;25.50;50.30;;;;;;111479;1238;45373;-70
2023/06/14 09:49:10;;;;;;;;;17.67;17.00;25.50;50.00;;;;;;111615;1242;48862;-72
2023/06/14 09:51:46;;;;;;;;;15.33;14.00;25.50;51.00;;;;;;111470;1243;50193;-71
2023/06/14 09:54:22;;;;;;;;;18.75;17.50;25.50;51.10;;;;;;111595;1238;53159;-72
2023/06/14 09:56:51;;;;;;;;;18.50;16.75;25.50;51.20;;;;;;111430;1243;44310;-72
2023/06/14 09:59:25;;;;;;;;;19.00;17.00;25.50;51.40;;;;;;111382;1240;49743;-71
2023/06/14 10:01:58;;;;;;;;;19.67;18.00;25.50;51.20;;;;;;111557;1242;49581;-71
2023/06/14 10:04:25;;;;;;;;;17.25;16.75;25.60;52.20;;;;;;111792;1243;53391;-72
2023/06/14 10:06:52;;;;;;;;;16.00;14.67;25.60;51.80;;;;;;111405;1243;44076;-72
2023/06/14 10:09:21;;;;;;;;;17.00;15.75;25.60;51.90;;;;;;111419;1240;49960;-71
2023/06/14 10:11:49;;;;;;;;;16.50;15.00;25.60;51.50;;;;;;111523;1242;48767;-70
2023/06/14 10:14:16;;;;;;;;;18.50;16.75;25.60;51.90;;;;;;111585;1239;53441;-72
2023/06/14 10:17:07;;;;;;;;;18.00;15.67;25.60;51.90;;;;;;111482;1242;44847;-72
2023/06/14 10:20:03;;;;;;;;;16.75;15.00;25.60;51.90;;;;;;111571;1237;49543;-76
2023/06/14 10:22:38;;;;;;;;;14.75;14.00;25.60;51.40;;;;;;111517;1237;49342;-76
2023/06/14 10:25:11;;;;;;;;;20.50;17.00;25.60;51.90;;;;;;111789;1243;52987;-71
2023/06/14 10:27:39;;;;;;;;;17.00;15.33;25.60;52.20;;;;;;111697;1237;44214;-74
2023/06/14 10:30:08;;;;;;;;;16.00;15.00;25.60;52.10;;;;;;111461;1240;49886;-70
2023/06/14 10:32:35;;;;;;;;;15.00;13.25;25.70;51.20;;;;;;111520;1242;49252;-66
2023/06/14 10:35:06;;;;;;;;;21.00;17.00;25.70;49.90;;;;;;111459;1238;54106;-68
2023/06/14 10:37:33;;;;;;;;;16.00;12.75;25.70;49.60;;;;;;111407;1244;45137;-62
2023/06/14 10:40:00;;;;;;;;;17.33;15.00;25.70;49.80;;;;;;111253;1243;49571;-64
2023/06/14 10:42:31;;;;;;;;;16.00;15.00;25.70;49.40;;;;;;111346;1241;49104;-64
2023/06/14 10:45:00;;;;;;;;;17.25;16.00;25.60;49.80;;;;;;111360;1237;53891;-60
2023/06/14 10:47:27;;;;;;;;;18.00;16.00;25.60;50.40;;;;;;111547;1238;44674;-67
2023/06/14 10:49:58;;;;;;;;;15.00;14.00;25.70;51.00;;;;;;111478;1242;49146;-65
2023/06/14 10:52:29;;;;;;;;;15.33;15.00;25.70;50.90;;;;;;111236;1239;49651;-64
2023/06/14 10:55:21;;;;;;;;;17.00;15.25;25.70;51.30;;;;;;111475;1243;53941;-66
2023/06/14 10:57:55;;;;;;;;;15.50;15.00;25.70;51.70;;;;;;111684;1241;44791;-65
2023/06/14 11:00:25;;;;;;;;;15.00;14.25;25.80;52.00;;;;;;111297;1243;48984;-65
2023/06/14 11:03:15;;;;;;;;;15.00;14.00;25.90;52.00;;;;;;111388;1239;49407;-62
2023/06/14 11:05:52;;;;;;;;;15.00;14.00;25.90;51.90;;;;;;111345;1238;53459;-61
2023/06/14 11:08:41;;;;;;;;;15.00;13.00;25.90;52.00;;;;;;111469;1237;44557;-63
2023/06/14 11:11:09;;;;;;;;;15.25;14.75;26.00;51.90;;;;;;111474;1242;48957;-61
2023/06/14 11:13:41;;;;;;;;;17.75;16.50;26.00;51.80;;;;;;111409;1240;49927;-67
2023/06/14 11:16:13;;;;;;;;;15.50;14.00;26.00;52.00;;;;;;111877;1243;54123;-62
2023/06/14 11:18:41;;;;;;;;;18.00;16.00;26.00;51.90;;;;;;111451;1242;44134;-61
2023/06/14 11:21:08;;;;;;;;;14.00;13.00;26.10;52.20;;;;;;111481;1242;49557;-64
2023/06/14 11:23:36;;;;;;;;;16.25;15.50;26.10;51.90;;;;;;111326;1237;49156;-62
2023/06/14 11:26:06;;;;;;;;;14.33;14.00;26.10;52.00;;;;;;111508;1237;53323;-62
2023/06/14 11:28:40;;;;;;;;;15.00;15.00;26.10;51.70;;;;;;111298;1239;44667;-63
2023/06/14 11:31:09;;;;;;;;;16.00;14.00;26.10;52.10;;;;;;111405;1240;49232;-63
2023/06/14 11:33:35;;;;;;;;;16.25;14.50;26.10;52.20;;;;;;111320;1238;49235;-62
2023/06/14 11:36:05;;;;;;;;;14.67;14.67;26.10;52.20;;;;;;111474;1243;53809;-62
2023/06/14 11:38:36;;;;;;;;;15.00;14.00;26.10;52.00;;;;;;111328;1238;44176;-64
2023/06/14 11:41:03;;;;;;;;;13.50;12.50;26.10;51.90;;;;;;111231;1243;50301;-63
2023/06/14 11:43:32;;;;;;;;;15.67;15.00;26.20;51.90;;;;;;111486;1242;48776;-63
2023/06/14 11:45:59;;;;;;;;;15.25;14.25;26.20;51.80;;;;;;111419;1243;54247;-64
2023/06/14 11:48:40;;;;;;;;;12.25;12.25;26.20;51.70;;;;;;111362;1240;44554;-63
2023/06/14 11:51:07;;;;;;;;;16.00;14.67;26.20;50.50;;;;;;111335;1239;49656;-62
2023/06/14 11:53:35;;;;;;;;;14.00;13.00;26.20;50.60;;;;;;111478;1237;50038;-60
2023/06/14 11:56:02;;;;;;;;;14.25;13.50;26.20;51.20;;;;;;111351;1242;54472;-64
2023/06/14 11:58:29;;;;;;;;;15.25;13.00;26.30;51.60;;;;;;111314;1243;44925;-63
2023/06/14 12:00:56;;;;;;;;;15.00;14.00;26.30;50.90;;;;;;111406;1243;49796;-63
2023/06/14 12:03:28;;;;;;;;;15.00;14.25;26.30;51.50;;;;;;111366;1243;49663;-76
2023/06/14 12:06:03;;;;;;;;;14.33;12.33;26.30;50.60;;;;;;111385;1237;54300;-67
2023/06/14 12:08:40;;;;;;;;;13.33;12.00;26.30;51.50;;;;;;111389;1243;44541;-64
2023/06/14 12:11:11;;;;;;;;;12.33;12.00;26.40;51.80;;;;;;111354;1237;49965;-63
2023/06/14 12:13:42;;;;;;;;;16.00;15.00;26.30;52.10;;;;;;111294;1240;49423;-63
2023/06/14 12:16:12;;;;;;;;;14.00;13.25;26.40;51.70;;;;;;111379;1239;53855;-66
2023/06/14 12:18:40;;;;;;;;;14.75;13.75;26.40;51.70;;;;;;111346;1237;45041;-65
2023/06/14 12:21:09;;;;;;;;;16.25;14.50;26.50;51.50;;;;;;111297;1240;50249;-62
2023/06/14 12:23:42;;;;;;;;;14.00;13.00;26.50;51.50;;;;;;111434;1239;49414;-62
2023/06/14 12:26:09;;;;;;;;;14.00;13.00;26.50;50.30;;;;;;111480;1237;54172;-64
2023/06/14 12:28:36;;;;;;;;;14.00;13.00;26.50;51.30;;;;;;111291;1237;44913;-65